Humidity-temperature Sensor

Selected Measurement Type: Relative Humidity

 
Relative Humidity [%]     6 entries per hour
Showing data from 3/12/2023 (00:00:00 Z) to 3/11/2023 (00:01:00 Z)
Previous Next [ Day | 3-Days | 7-Days ]
First Last
Prev [ Day | 3-Days | 7-Days ] Next
First Last

Start Time:     :
End Time:     :     
Time (in GMT) :00 :50 :40 :30 :20 :10
Previous Next [ Day | 3-Days | 7-Days ]
First Last
Prev [ Day | 3-Days | 7-Days ] Next
First Last


123 => good data
MM => data is determined as missing
-- => data not received/configured
Back to Top Back to Top
3/12/2023 00:00 to 23:10 84.24 84.22 83.85 83.50 83.63 84.02
3/11/2023 23:00 to 22:10 83.75 83.89 84.29 83.92 84.16 84.96
3/11/2023 22:00 to 21:10 85.62 85.74 85.56 84.90 84.31 83.96
3/11/2023 21:00 to 20:10 83.69 84.16 84.53 84.84 85.05 84.80
3/11/2023 20:00 to 19:10 84.72 84.96 84.74 84.70 84.72 85.05
3/11/2023 19:00 to 18:10 85.25 85.23 85.17 85.27 85.11 85.21
3/11/2023 18:00 to 17:10 85.42 85.35 85.33 85.11 85.15 85.27
3/11/2023 17:00 to 16:10 85.13 84.90 84.80 84.90 84.49 84.37
3/11/2023 16:00 to 15:10 84.39 84.86 84.80 84.63 84.84 84.63
3/11/2023 15:00 to 14:10 83.65 83.26 82.56 82.70 83.32 83.22
3/11/2023 14:00 to 13:10 83.87 83.98 83.83 84.26 84.47 85.00
3/11/2023 13:00 to 12:10 85.70 85.39 85.39 85.64 86.20 86.26
3/11/2023 12:00 to 11:10 86.30 86.11 86.01 86.16 85.81 85.76
3/11/2023 11:00 to 10:10 85.70 85.50 85.15 84.94 84.88 84.37
3/11/2023 10:00 to 9:10 84.14 84.08 82.85 82.48 83.42 84.86
3/11/2023 09:00 to 8:10 85.54 85.15 84.63 84.92 85.52 86.03
3/11/2023 08:00 to 7:10 85.87 85.58 85.19 85.52 85.46 85.39
3/11/2023 07:00 to 6:10 86.16 86.18 86.03 86.53 86.90 86.73
3/11/2023 06:00 to 5:10 86.73 86.55 86.63 86.55 86.71 86.79
3/11/2023 05:00 to 4:10 86.32 86.30 86.69 86.36 85.99 85.99
3/11/2023 04:00 to 3:10 85.60 85.70 85.54 85.05 84.72 85.29
3/11/2023 03:00 to 2:10 86.09 86.03 86.03 86.48 86.24 86.18
3/11/2023 02:00 to 1:10 86.26 86.36 86.46 86.07 85.91 85.89
3/11/2023 01:00 to 0:10 85.93 86.13 85.68 85.66 85.09 85.09